sensor_id;sensor_type;location;lat;lon;timestamp;temperature;humidity
10030;DHT22;5055;52.054;8.524;2023-06-10T00:00:53;17.30;97.00
10030;DHT22;5055;52.054;8.524;2023-06-10T00:03:22;17.20;97.00
10030;DHT22;5055;52.054;8.524;2023-06-10T00:05:51;17.20;97.00
10030;DHT22;5055;52.054;8.524;2023-06-10T00:08:21;17.10;97.00
10030;DHT22;5055;52.054;8.524;2023-06-10T00:10:50;17.00;97.00
10030;DHT22;5055;52.054;8.524;2023-06-10T00:13:19;17.00;97.00
10030;DHT22;5055;52.054;8.524;2023-06-10T00:15:47;16.90;97.00
10030;DHT22;5055;52.054;8.524;2023-06-10T00:18:16;16.90;97.00
10030;DHT22;5055;52.054;8.524;2023-06-10T00:20:44;16.90;97.00
10030;DHT22;5055;52.054;8.524;2023-06-10T00:23:13;17.00;97.00
10030;DHT22;5055;52.054;8.524;2023-06-10T00:25:43;16.90;97.00
10030;DHT22;5055;52.054;8.524;2023-06-10T00:28:11;16.90;97.00
10030;DHT22;5055;52.054;8.524;2023-06-10T00:30:40;16.90;97.00
10030;DHT22;5055;52.054;8.524;2023-06-10T00:33:08;17.00;97.00
10030;DHT22;5055;52.054;8.524;2023-06-10T00:35:37;16.90;97.00
10030;DHT22;5055;52.054;8.524;2023-06-10T00:38:06;16.90;97.00
10030;DHT22;5055;52.054;8.524;2023-06-10T00:40:39;16.80;97.00
10030;DHT22;5055;52.054;8.524;2023-06-10T00:43:09;16.70;97.00
10030;DHT22;5055;52.054;8.524;2023-06-10T00:45:37;16.60;97.00
10030;DHT22;5055;52.054;8.524;2023-06-10T00:48:06;16.60;97.00
10030;DHT22;5055;52.054;8.524;2023-06-10T00:50:35;16.60;97.00
10030;DHT22;5055;52.054;8.524;2023-06-10T00:53:06;16.60;97.00
10030;DHT22;5055;52.054;8.524;2023-06-10T00:55:35;16.50;97.00
10030;DHT22;5055;52.054;8.524;2023-06-10T00:58:04;16.50;97.00
10030;DHT22;5055;52.054;8.524;2023-06-10T01:00:35;16.40;97.00
10030;DHT22;5055;52.054;8.524;2023-06-10T01:03:03;16.40;97.00
10030;DHT22;5055;52.054;8.524;2023-06-10T01:05:35;16.30;97.00
10030;DHT22;5055;52.054;8.524;2023-06-10T01:08:09;16.30;97.00
10030;DHT22;5055;52.054;8.524;2023-06-10T01:10:41;16.30;97.00
10030;DHT22;5055;52.054;8.524;2023-06-10T01:13:12;16.20;97.00
10030;DHT22;5055;52.054;8.524;2023-06-10T01:15:43;16.20;97.00
10030;DHT22;5055;52.054;8.524;2023-06-10T01:18:11;16.20;97.00
10030;DHT22;5055;52.054;8.524;2023-06-10T01:20:43;16.00;97.00
10030;DHT22;5055;52.054;8.524;2023-06-10T01:23:15;15.90;97.00
10030;DHT22;5055;52.054;8.524;2023-06-10T01:25:47;15.90;97.00
10030;DHT22;5055;52.054;8.524;2023-06-10T01:28:22;15.80;97.00
10030;DHT22;5055;52.054;8.524;2023-06-10T01:30:57;15.90;97.00
10030;DHT22;5055;52.054;8.524;2023-06-10T01:33:31;15.80;97.00
10030;DHT22;5055;52.054;8.524;2023-06-10T01:36:02;15.80;97.00
10030;DHT22;5055;52.054;8.524;2023-06-10T01:38:37;15.80;97.00
10030;DHT22;5055;52.054;8.524;2023-06-10T01:41:07;15.80;97.00
10030;DHT22;5055;52.054;8.524;2023-06-10T01:43:38;15.80;97.00
10030;DHT22;5055;52.054;8.524;2023-06-10T01:46:06;15.80;97.00
10030;DHT22;5055;52.054;8.524;2023-06-10T01:48:35;15.80;97.00
10030;DHT22;5055;52.054;8.524;2023-06-10T01:51:04;15.90;97.00
10030;DHT22;5055;52.054;8.524;2023-06-10T01:53:34;15.80;97.00
10030;DHT22;5055;52.054;8.524;2023-06-10T01:56:03;15.80;97.00
10030;DHT22;5055;52.054;8.524;2023-06-10T01:58:32;15.80;97.00
10030;DHT22;5055;52.054;8.524;2023-06-10T02:01:00;15.70;97.00
10030;DHT22;5055;52.054;8.524;2023-06-10T02:03:28;15.60;97.00
10030;DHT22;5055;52.054;8.524;2023-06-10T02:05:57;15.50;97.00
10030;DHT22;5055;52.054;8.524;2023-06-10T02:08:27;15.50;97.00
10030;DHT22;5055;52.054;8.524;2023-06-10T02:10:57;15.40;97.00
10030;DHT22;5055;52.054;8.524;2023-06-10T02:13:25;15.40;97.00
10030;DHT22;5055;52.054;8.524;2023-06-10T02:15:53;15.40;97.00
10030;DHT22;5055;52.054;8.524;2023-06-10T02:18:22;15.40;97.00
10030;DHT22;5055;52.054;8.524;2023-06-10T02:20:50;15.40;97.00
10030;DHT22;5055;52.054;8.524;2023-06-10T02:23:18;15.30;97.00
10030;DHT22;5055;52.054;8.524;2023-06-10T02:25:47;15.20;97.00
10030;DHT22;5055;52.054;8.524;2023-06-10T02:28:16;15.10;97.00
10030;DHT22;5055;52.054;8.524;2023-06-10T02:30:45;15.00;97.00
10030;DHT22;5055;52.054;8.524;2023-06-10T02:33:14;14.90;97.00
10030;DHT22;5055;52.054;8.524;2023-06-10T02:35:42;14.80;97.00
10030;DHT22;5055;52.054;8.524;2023-06-10T02:38:10;14.70;97.00
10030;DHT22;5055;52.054;8.524;2023-06-10T02:40:39;14.70;97.00
10030;DHT22;5055;52.054;8.524;2023-06-10T02:43:07;14.70;97.00
10030;DHT22;5055;52.054;8.524;2023-06-10T02:45:37;14.60;97.00
10030;DHT22;5055;52.054;8.524;2023-06-10T02:48:06;14.60;97.00
10030;DHT22;5055;52.054;8.524;2023-06-10T02:50:35;14.60;97.00
10030;DHT22;5055;52.054;8.524;2023-06-10T02:53:06;14.60;97.00
10030;DHT22;5055;52.054;8.524;2023-06-10T02:55:35;14.50;97.00
10030;DHT22;5055;52.054;8.524;2023-06-10T02:58:08;14.50;97.00
10030;DHT22;5055;52.054;8.524;2023-06-10T03:00:38;14.50;97.00
10030;DHT22;5055;52.054;8.524;2023-06-10T03:03:07;14.50;97.00
10030;DHT22;5055;52.054;8.524;2023-06-10T03:05:37;14.50;97.00
10030;DHT22;5055;52.054;8.524;2023-06-10T03:08:05;14.50;97.00
10030;DHT22;5055;52.054;8.524;2023-06-10T03:10:34;14.50;97.00
10030;DHT22;5055;52.054;8.524;2023-06-10T03:13:02;14.50;97.00
10030;DHT22;5055;52.054;8.524;2023-06-10T03:15:31;14.60;97.00
10030;DHT22;5055;52.054;8.524;2023-06-10T03:18:01;14.50;97.00
10030;DHT22;5055;52.054;8.524;2023-06-10T03:20:29;14.50;97.00
10030;DHT22;5055;52.054;8.524;2023-06-10T03:22:58;14.60;97.00
10030;DHT22;5055;52.054;8.524;2023-06-10T03:25:26;14.60;97.00
10030;DHT22;5055;52.054;8.524;2023-06-10T03:27:55;14.60;97.00
10030;DHT22;5055;52.054;8.524;2023-06-10T03:30:24;14.50;97.00
10030;DHT22;5055;52.054;8.524;2023-06-10T03:32:52;14.50;97.00
10030;DHT22;5055;52.054;8.524;2023-06-10T03:35:22;14.60;97.00
10030;DHT22;5055;52.054;8.524;2023-06-10T03:37:50;14.60;97.00
10030;DHT22;5055;52.054;8.524;2023-06-10T03:40:19;14.60;97.00
10030;DHT22;5055;52.054;8.524;2023-06-10T03:42:47;14.70;97.00
10030;DHT22;5055;52.054;8.524;2023-06-10T03:45:16;14.80;97.00
10030;DHT22;5055;52.054;8.524;2023-06-10T03:47:44;14.80;97.00
10030;DHT22;5055;52.054;8.524;2023-06-10T03:50:15;14.90;97.00
10030;DHT22;5055;52.054;8.524;2023-06-10T03:52:45;15.00;97.00
10030;DHT22;5055;52.054;8.524;2023-06-10T03:55:14;15.00;97.00
10030;DHT22;5055;52.054;8.524;2023-06-10T03:57:44;15.00;97.00
10030;DHT22;5055;52.054;8.524;2023-06-10T04:00:18;15.00;97.00
10030;DHT22;5055;52.054;8.524;2023-06-10T04:02:48;15.00;97.00
10030;DHT22;5055;52.054;8.524;2023-06-10T04:05:19;15.10;97.00
10030;DHT22;5055;52.054;8.524;2023-06-10T04:07:51;15.00;97.00
10030;DHT22;5055;52.054;8.524;2023-06-10T04:10:19;15.10;97.00
10030;DHT22;5055;52.054;8.524;2023-06-10T04:12:47;15.10;97.00
10030;DHT22;5055;52.054;8.524;2023-06-10T04:15:16;15.20;97.00
10030;DHT22;5055;52.054;8.524;2023-06-10T04:17:44;15.30;97.00
10030;DHT22;5055;52.054;8.524;2023-06-10T04:20:13;15.30;97.00
10030;DHT22;5055;52.054;8.524;2023-06-10T04:22:41;15.40;97.00
10030;DHT22;5055;52.054;8.524;2023-06-10T04:25:11;15.40;97.00
10030;DHT22;5055;52.054;8.524;2023-06-10T04:27:39;15.50;97.00
10030;DHT22;5055;52.054;8.524;2023-06-10T04:30:09;15.50;97.00
10030;DHT22;5055;52.054;8.524;2023-06-10T04:32:37;15.60;97.00
10030;DHT22;5055;52.054;8.524;2023-06-10T04:35:07;15.70;97.00
10030;DHT22;5055;52.054;8.524;2023-06-10T04:37:36;15.80;97.00
10030;DHT22;5055;52.054;8.524;2023-06-10T04:40:05;15.90;97.00
10030;DHT22;5055;52.054;8.524;2023-06-10T04:42:35;16.00;97.00
10030;DHT22;5055;52.054;8.524;2023-06-10T04:45:07;16.10;97.00
10030;DHT22;5055;52.054;8.524;2023-06-10T04:47:36;16.10;97.00
10030;DHT22;5055;52.054;8.524;2023-06-10T04:50:05;16.20;97.00
10030;DHT22;5055;52.054;8.524;2023-06-10T04:52:34;16.30;97.00
10030;DHT22;5055;52.054;8.524;2023-06-10T04:55:03;16.40;97.00
10030;DHT22;5055;52.054;8.524;2023-06-10T04:57:31;16.50;97.00
10030;DHT22;5055;52.054;8.524;2023-06-10T05:00:01;16.60;97.00
10030;DHT22;5055;52.054;8.524;2023-06-10T05:02:33;16.70;97.00
10030;DHT22;5055;52.054;8.524;2023-06-10T05:05:01;16.80;97.00
10030;DHT22;5055;52.054;8.524;2023-06-10T05:07:30;16.90;97.00
10030;DHT22;5055;52.054;8.524;2023-06-10T05:09:58;17.00;97.00
10030;DHT22;5055;52.054;8.524;2023-06-10T05:12:26;17.20;97.00
10030;DHT22;5055;52.054;8.524;2023-06-10T05:14:55;17.30;97.00
10030;DHT22;5055;52.054;8.524;2023-06-10T05:17:28;17.40;97.00
10030;DHT22;5055;52.054;8.524;2023-06-10T05:19:59;17.50;97.00
10030;DHT22;5055;52.054;8.524;2023-06-10T05:22:27;17.70;97.00
10030;DHT22;5055;52.054;8.524;2023-06-10T05:24:56;17.80;97.00
10030;DHT22;5055;52.054;8.524;2023-06-10T05:27:24;18.00;97.00
10030;DHT22;5055;52.054;8.524;2023-06-10T05:29:53;18.10;97.00
10030;DHT22;5055;52.054;8.524;2023-06-10T05:32:21;18.20;97.00
10030;DHT22;5055;52.054;8.524;2023-06-10T05:34:51;18.30;97.00
10030;DHT22;5055;52.054;8.524;2023-06-10T05:37:19;18.50;97.00
10030;DHT22;5055;52.054;8.524;2023-06-10T05:39:48;18.60;97.00
10030;DHT22;5055;52.054;8.524;2023-06-10T05:42:16;18.70;97.00
10030;DHT22;5055;52.054;8.524;2023-06-10T05:44:44;18.90;97.00
10030;DHT22;5055;52.054;8.524;2023-06-10T05:47:13;19.00;97.00
10030;DHT22;5055;52.054;8.524;2023-06-10T05:49:41;19.00;97.00
10030;DHT22;5055;52.054;8.524;2023-06-10T05:52:14;19.20;97.00
10030;DHT22;5055;52.054;8.524;2023-06-10T05:54:42;19.20;97.00
10030;DHT22;5055;52.054;8.524;2023-06-10T05:57:10;19.30;97.00
10030;DHT22;5055;52.054;8.524;2023-06-10T05:59:39;19.50;97.00
10030;DHT22;5055;52.054;8.524;2023-06-10T06:02:07;19.60;97.00
10030;DHT22;5055;52.054;8.524;2023-06-10T06:04:36;19.80;97.00
10030;DHT22;5055;52.054;8.524;2023-06-10T06:07:05;19.80;97.00
10030;DHT22;5055;52.054;8.524;2023-06-10T06:09:35;19.90;97.00
10030;DHT22;5055;52.054;8.524;2023-06-10T06:12:04;20.00;97.00
10030;DHT22;5055;52.054;8.524;2023-06-10T06:14:37;20.10;97.00
10030;DHT22;5055;52.054;8.524;2023-06-10T06:17:07;20.20;97.00
10030;DHT22;5055;52.054;8.524;2023-06-10T06:19:35;20.40;97.00
10030;DHT22;5055;52.054;8.524;2023-06-10T06:22:04;20.50;97.00
10030;DHT22;5055;52.054;8.524;2023-06-10T06:24:33;20.70;97.00
10030;DHT22;5055;52.054;8.524;2023-06-10T06:27:03;20.80;97.00
10030;DHT22;5055;52.054;8.524;2023-06-10T06:29:32;20.90;97.00
10030;DHT22;5055;52.054;8.524;2023-06-10T06:32:01;21.10;97.00
10030;DHT22;5055;52.054;8.524;2023-06-10T06:34:30;21.10;97.00
10030;DHT22;5055;52.054;8.524;2023-06-10T06:36:58;21.30;97.00
10030;DHT22;5055;52.054;8.524;2023-06-10T06:39:27;21.50;97.00
10030;DHT22;5055;52.054;8.524;2023-06-10T06:41:56;21.60;97.00
10030;DHT22;5055;52.054;8.524;2023-06-10T06:44:26;21.80;97.00
10030;DHT22;5055;52.054;8.524;2023-06-10T06:46:54;22.00;97.00
10030;DHT22;5055;52.054;8.524;2023-06-10T06:49:23;22.20;97.00
10030;DHT22;5055;52.054;8.524;2023-06-10T06:51:51;22.50;97.00
10030;DHT22;5055;52.054;8.524;2023-06-10T06:54:20;22.60;97.00
10030;DHT22;5055;52.054;8.524;2023-06-10T06:56:49;22.70;97.00
10030;DHT22;5055;52.054;8.524;2023-06-10T06:59:18;22.90;97.00
10030;DHT22;5055;52.054;8.524;2023-06-10T07:01:48;22.90;97.00
10030;DHT22;5055;52.054;8.524;2023-06-10T07:04:17;23.20;97.00
10030;DHT22;5055;52.054;8.524;2023-06-10T07:06:46;23.50;97.00
10030;DHT22;5055;52.054;8.524;2023-06-10T07:09:15;23.70;97.00
10030;DHT22;5055;52.054;8.524;2023-06-10T07:11:43;23.90;97.00
10030;DHT22;5055;52.054;8.524;2023-06-10T07:14:12;24.00;97.00
10030;DHT22;5055;52.054;8.524;2023-06-10T07:16:40;24.10;97.00
10030;DHT22;5055;52.054;8.524;2023-06-10T07:19:10;24.20;97.00
10030;DHT22;5055;52.054;8.524;2023-06-10T07:21:38;24.50;97.00
10030;DHT22;5055;52.054;8.524;2023-06-10T07:24:13;24.70;97.00
10030;DHT22;5055;52.054;8.524;2023-06-10T07:26:44;24.80;97.00
10030;DHT22;5055;52.054;8.524;2023-06-10T07:29:12;24.80;97.00
10030;DHT22;5055;52.054;8.524;2023-06-10T07:31:41;25.00;97.00
10030;DHT22;5055;52.054;8.524;2023-06-10T07:34:10;25.10;97.00
10030;DHT22;5055;52.054;8.524;2023-06-10T07:36:39;25.30;97.00
10030;DHT22;5055;52.054;8.524;2023-06-10T07:39:07;25.30;97.00
10030;DHT22;5055;52.054;8.524;2023-06-10T07:41:37;25.60;97.00
10030;DHT22;5055;52.054;8.524;2023-06-10T07:44:05;25.80;97.00
10030;DHT22;5055;52.054;8.524;2023-06-10T07:46:33;26.00;97.00
10030;DHT22;5055;52.054;8.524;2023-06-10T07:49:02;26.40;97.00
10030;DHT22;5055;52.054;8.524;2023-06-10T07:51:31;26.60;97.00
10030;DHT22;5055;52.054;8.524;2023-06-10T07:54:00;26.50;97.00
10030;DHT22;5055;52.054;8.524;2023-06-10T07:56:28;26.80;97.00
10030;DHT22;5055;52.054;8.524;2023-06-10T07:58:57;26.70;97.00
10030;DHT22;5055;52.054;8.524;2023-06-10T08:01:25;26.90;97.00
10030;DHT22;5055;52.054;8.524;2023-06-10T08:03:54;27.10;97.00
10030;DHT22;5055;52.054;8.524;2023-06-10T08:06:22;26.90;97.00
10030;DHT22;5055;52.054;8.524;2023-06-10T08:08:52;27.20;97.00
10030;DHT22;5055;52.054;8.524;2023-06-10T08:11:21;27.00;97.00
10030;DHT22;5055;52.054;8.524;2023-06-10T08:13:49;27.30;97.00
10030;DHT22;5055;52.054;8.524;2023-06-10T08:16:18;27.20;97.00
10030;DHT22;5055;52.054;8.524;2023-06-10T08:18:46;27.40;97.00
10030;DHT22;5055;52.054;8.524;2023-06-10T08:21:21;27.50;97.00
10030;DHT22;5055;52.054;8.524;2023-06-10T08:23:54;27.90;97.00
10030;DHT22;5055;52.054;8.524;2023-06-10T08:26:23;28.10;97.00
10030;DHT22;5055;52.054;8.524;2023-06-10T08:28:51;28.40;97.00
10030;DHT22;5055;52.054;8.524;2023-06-10T08:31:20;28.60;97.00
10030;DHT22;5055;52.054;8.524;2023-06-10T08:33:49;28.70;97.00
10030;DHT22;5055;52.054;8.524;2023-06-10T08:36:17;28.70;97.00
10030;DHT22;5055;52.054;8.524;2023-06-10T08:38:45;28.70;97.00
10030;DHT22;5055;52.054;8.524;2023-06-10T08:41:17;28.70;97.00
10030;DHT22;5055;52.054;8.524;2023-06-10T08:43:53;28.90;97.00
10030;DHT22;5055;52.054;8.524;2023-06-10T08:46:23;29.10;97.00
10030;DHT22;5055;52.054;8.524;2023-06-10T08:48:55;29.10;97.00
10030;DHT22;5055;52.054;8.524;2023-06-10T08:51:26;29.30;97.00
10030;DHT22;5055;52.054;8.524;2023-06-10T08:54:01;29.50;97.00
10030;DHT22;5055;52.054;8.524;2023-06-10T08:56:32;29.40;97.00
10030;DHT22;5055;52.054;8.524;2023-06-10T08:59:05;29.80;97.00
10030;DHT22;5055;52.054;8.524;2023-06-10T09:01:34;29.50;97.00
10030;DHT22;5055;52.054;8.524;2023-06-10T09:04:04;29.60;97.00
10030;DHT22;5055;52.054;8.524;2023-06-10T09:06:33;29.40;97.00
10030;DHT22;5055;52.054;8.524;2023-06-10T09:09:03;29.40;97.00
10030;DHT22;5055;52.054;8.524;2023-06-10T09:11:33;29.70;97.00
10030;DHT22;5055;52.054;8.524;2023-06-10T09:14:02;29.80;97.00
10030;DHT22;5055;52.054;8.524;2023-06-10T09:16:30;29.90;97.00
10030;DHT22;5055;52.054;8.524;2023-06-10T09:18:59;30.00;97.00
10030;DHT22;5055;52.054;8.524;2023-06-10T09:21:28;29.60;97.00
10030;DHT22;5055;52.054;8.524;2023-06-10T09:23:56;29.80;97.00
10030;DHT22;5055;52.054;8.524;2023-06-10T09:26:28;29.90;97.00
10030;DHT22;5055;52.054;8.524;2023-06-10T09:29:03;30.00;97.00
10030;DHT22;5055;52.054;8.524;2023-06-10T09:31:35;29.80;97.00
10030;DHT22;5055;52.054;8.524;2023-06-10T09:34:07;29.70;97.00
10030;DHT22;5055;52.054;8.524;2023-06-10T09:36:36;29.80;97.00
10030;DHT22;5055;52.054;8.524;2023-06-10T09:39:13;29.70;97.00
10030;DHT22;5055;52.054;8.524;2023-06-10T09:41:42;29.90;97.00
10030;DHT22;5055;52.054;8.524;2023-06-10T09:44:14;30.20;97.00
10030;DHT22;5055;52.054;8.524;2023-06-10T09:46:45;30.30;97.00
10030;DHT22;5055;52.054;8.524;2023-06-10T09:49:13;30.00;97.00
10030;DHT22;5055;52.054;8.524;2023-06-10T09:51:49;30.50;97.00
10030;DHT22;5055;52.054;8.524;2023-06-10T09:54:19;30.50;97.00
10030;DHT22;5055;52.054;8.524;2023-06-10T09:56:48;30.50;97.00
10030;DHT22;5055;52.054;8.524;2023-06-10T09:59:28;30.50;97.00
10030;DHT22;5055;52.054;8.524;2023-06-10T10:01:58;30.60;97.00
10030;DHT22;5055;52.054;8.524;2023-06-10T10:04:27;30.60;97.00
10030;DHT22;5055;52.054;8.524;2023-06-10T10:06:56;30.80;97.00
10030;DHT22;5055;52.054;8.524;2023-06-10T10:09:26;31.30;97.00
10030;DHT22;5055;52.054;8.524;2023-06-10T10:11:55;31.30;97.00
10030;DHT22;5055;52.054;8.524;2023-06-10T10:14:32;31.40;97.00
10030;DHT22;5055;52.054;8.524;2023-06-10T10:17:02;31.60;97.00
10030;DHT22;5055;52.054;8.524;2023-06-10T10:19:33;31.20;97.00
10030;DHT22;5055;52.054;8.524;2023-06-10T10:22:06;31.40;97.00
10030;DHT22;5055;52.054;8.524;2023-06-10T10:24:40;31.70;97.00
10030;DHT22;5055;52.054;8.524;2023-06-10T10:27:16;31.50;97.00
10030;DHT22;5055;52.054;8.524;2023-06-10T10:29:48;31.70;97.00
10030;DHT22;5055;52.054;8.524;2023-06-10T10:32:19;32.00;97.00
10030;DHT22;5055;52.054;8.524;2023-06-10T10:35:05;31.90;97.00
10030;DHT22;5055;52.054;8.524;2023-06-10T10:37:36;31.80;97.00
10030;DHT22;5055;52.054;8.524;2023-06-10T10:40:06;31.70;97.00
10030;DHT22;5055;52.054;8.524;2023-06-10T10:42:36;31.90;97.00
10030;DHT22;5055;52.054;8.524;2023-06-10T10:45:08;31.90;97.00
10030;DHT22;5055;52.054;8.524;2023-06-10T10:47:38;32.20;97.00
10030;DHT22;5055;52.054;8.524;2023-06-10T10:50:17;32.10;97.00
10030;DHT22;5055;52.054;8.524;2023-06-10T10:52:54;32.10;97.00
10030;DHT22;5055;52.054;8.524;2023-06-10T10:55:23;32.10;97.00
10030;DHT22;5055;52.054;8.524;2023-06-10T10:57:56;32.20;97.00
10030;DHT22;5055;52.054;8.524;2023-06-10T11:00:29;32.00;97.00
10030;DHT22;5055;52.054;8.524;2023-06-10T11:02:59;32.10;97.00
10030;DHT22;5055;52.054;8.524;2023-06-10T11:05:37;31.90;97.00
10030;DHT22;5055;52.054;8.524;2023-06-10T11:08:08;31.90;97.00
10030;DHT22;5055;52.054;8.524;2023-06-10T11:10:37;32.00;97.00
10030;DHT22;5055;52.054;8.524;2023-06-10T11:13:08;32.00;97.00
10030;DHT22;5055;52.054;8.524;2023-06-10T11:15:43;32.50;97.00
10030;DHT22;5055;52.054;8.524;2023-06-10T11:18:14;32.60;97.00
10030;DHT22;5055;52.054;8.524;2023-06-10T11:20:52;32.80;97.00
10030;DHT22;5055;52.054;8.524;2023-06-10T11:23:42;33.00;97.00
10030;DHT22;5055;52.054;8.524;2023-06-10T11:26:19;33.00;97.00
10030;DHT22;5055;52.054;8.524;2023-06-10T11:29:04;32.60;97.00
10030;DHT22;5055;52.054;8.524;2023-06-10T11:31:38;32.70;97.00
10030;DHT22;5055;52.054;8.524;2023-06-10T11:34:08;32.60;97.00
10030;DHT22;5055;52.054;8.524;2023-06-10T11:36:37;32.40;97.00
10030;DHT22;5055;52.054;8.524;2023-06-10T11:39:07;32.60;97.00
10030;DHT22;5055;52.054;8.524;2023-06-10T11:41:37;32.70;97.00
10030;DHT22;5055;52.054;8.524;2023-06-10T11:44:11;32.70;97.00
10030;DHT22;5055;52.054;8.524;2023-06-10T11:46:48;32.90;97.00
10030;DHT22;5055;52.054;8.524;2023-06-10T11:49:17;32.50;97.00
10030;DHT22;5055;52.054;8.524;2023-06-10T11:51:46;32.50;97.00
10030;DHT22;5055;52.054;8.524;2023-06-10T11:54:18;32.60;97.00
10030;DHT22;5055;52.054;8.524;2023-06-10T11:56:47;32.80;97.00
10030;DHT22;5055;52.054;8.524;2023-06-10T11:59:16;33.00;97.00
10030;DHT22;5055;52.054;8.524;2023-06-10T12:01:46;33.20;97.00
10030;DHT22;5055;52.054;8.524;2023-06-10T12:04:15;33.20;97.00
10030;DHT22;5055;52.054;8.524;2023-06-10T12:06:46;33.30;97.00
10030;DHT22;5055;52.054;8.524;2023-06-10T12:09:19;33.40;97.00
10030;DHT22;5055;52.054;8.524;2023-06-10T12:11:55;33.20;97.00
10030;DHT22;5055;52.054;8.524;2023-06-10T12:14:49;33.20;97.00
10030;DHT22;5055;52.054;8.524;2023-06-10T12:17:20;32.90;97.00
10030;DHT22;5055;52.054;8.524;2023-06-10T12:19:49;32.90;97.00
10030;DHT22;5055;52.054;8.524;2023-06-10T12:22:18;33.20;97.00
10030;DHT22;5055;52.054;8.524;2023-06-10T12:24:58;33.50;97.00
10030;DHT22;5055;52.054;8.524;2023-06-10T12:27:28;33.70;97.00
10030;DHT22;5055;52.054;8.524;2023-06-10T12:29:57;33.60;97.00
10030;DHT22;5055;52.054;8.524;2023-06-10T12:32:40;33.50;97.00
10030;DHT22;5055;52.054;8.524;2023-06-10T12:35:11;33.40;97.00
10030;DHT22;5055;52.054;8.524;2023-06-10T12:37:41;33.40;97.00
10030;DHT22;5055;52.054;8.524;2023-06-10T12:40:11;33.60;97.00
10030;DHT22;5055;52.054;8.524;2023-06-10T12:42:46;33.60;97.00
10030;DHT22;5055;52.054;8.524;2023-06-10T12:45:26;33.70;97.00
10030;DHT22;5055;52.054;8.524;2023-06-10T12:48:06;33.40;97.00
10030;DHT22;5055;52.054;8.524;2023-06-10T12:50:37;33.10;97.00
10030;DHT22;5055;52.054;8.524;2023-06-10T12:53:06;33.10;97.00
10030;DHT22;5055;52.054;8.524;2023-06-10T12:55:34;33.00;97.00
10030;DHT22;5055;52.054;8.524;2023-06-10T12:58:03;33.10;97.00
10030;DHT22;5055;52.054;8.524;2023-06-10T13:00:31;33.00;97.00
10030;DHT22;5055;52.054;8.524;2023-06-10T13:03:03;32.50;97.00
10030;DHT22;5055;52.054;8.524;2023-06-10T13:05:35;32.60;97.00
10030;DHT22;5055;52.054;8.524;2023-06-10T13:08:04;32.70;97.00
10030;DHT22;5055;52.054;8.524;2023-06-10T13:10:34;32.70;97.00
10030;DHT22;5055;52.054;8.524;2023-06-10T13:13:03;32.80;97.00
10030;DHT22;5055;52.054;8.524;2023-06-10T13:15:33;32.50;97.00
10030;DHT22;5055;52.054;8.524;2023-06-10T13:18:08;32.50;97.00
10030;DHT22;5055;52.054;8.524;2023-06-10T13:20:39;32.90;97.00
10030;DHT22;5055;52.054;8.524;2023-06-10T13:23:07;33.20;97.00
10030;DHT22;5055;52.054;8.524;2023-06-10T13:25:36;33.20;97.00
10030;DHT22;5055;52.054;8.524;2023-06-10T13:28:04;33.30;97.00
10030;DHT22;5055;52.054;8.524;2023-06-10T13:30:33;33.10;97.00
10030;DHT22;5055;52.054;8.524;2023-06-10T13:33:01;32.70;97.00
10030;DHT22;5055;52.054;8.524;2023-06-10T13:35:30;33.00;97.00
10030;DHT22;5055;52.054;8.524;2023-06-10T13:38:00;33.30;97.00
10030;DHT22;5055;52.054;8.524;2023-06-10T13:40:29;33.60;97.00
10030;DHT22;5055;52.054;8.524;2023-06-10T13:42:57;33.40;97.00
10030;DHT22;5055;52.054;8.524;2023-06-10T13:45:26;33.50;97.00
10030;DHT22;5055;52.054;8.524;2023-06-10T13:47:55;33.70;97.00
10030;DHT22;5055;52.054;8.524;2023-06-10T13:50:24;33.80;97.00
10030;DHT22;5055;52.054;8.524;2023-06-10T13:52:52;33.90;97.00
10030;DHT22;5055;52.054;8.524;2023-06-10T13:55:23;34.10;97.00
10030;DHT22;5055;52.054;8.524;2023-06-10T13:57:59;33.90;97.00
10030;DHT22;5055;52.054;8.524;2023-06-10T14:00:28;33.40;97.00
10030;DHT22;5055;52.054;8.524;2023-06-10T14:02:57;33.30;97.00
10030;DHT22;5055;52.054;8.524;2023-06-10T14:05:25;33.30;97.00
10030;DHT22;5055;52.054;8.524;2023-06-10T14:07:57;33.10;97.00
10030;DHT22;5055;52.054;8.524;2023-06-10T14:10:27;33.00;97.00
10030;DHT22;5055;52.054;8.524;2023-06-10T14:12:56;33.00;97.00
10030;DHT22;5055;52.054;8.524;2023-06-10T14:15:27;33.40;97.00
10030;DHT22;5055;52.054;8.524;2023-06-10T14:17:56;33.50;97.00
10030;DHT22;5055;52.054;8.524;2023-06-10T14:20:34;33.50;97.00
10030;DHT22;5055;52.054;8.524;2023-06-10T14:23:03;33.70;97.00
10030;DHT22;5055;52.054;8.524;2023-06-10T14:25:33;33.60;97.00
10030;DHT22;5055;52.054;8.524;2023-06-10T14:28:03;33.50;97.00
10030;DHT22;5055;52.054;8.524;2023-06-10T14:30:31;33.60;97.00
10030;DHT22;5055;52.054;8.524;2023-06-10T14:33:02;33.30;97.00
10030;DHT22;5055;52.054;8.524;2023-06-10T14:35:31;32.70;97.00
10030;DHT22;5055;52.054;8.524;2023-06-10T14:37:59;32.50;97.00
10030;DHT22;5055;52.054;8.524;2023-06-10T14:40:34;32.60;97.00
10030;DHT22;5055;52.054;8.524;2023-06-10T14:43:03;32.20;97.00
10030;DHT22;5055;52.054;8.524;2023-06-10T14:45:36;32.20;97.00
10030;DHT22;5055;52.054;8.524;2023-06-10T14:48:06;32.20;97.00
10030;DHT22;5055;52.054;8.524;2023-06-10T14:50:35;32.20;97.00
10030;DHT22;5055;52.054;8.524;2023-06-10T14:53:03;32.40;97.00
10030;DHT22;5055;52.054;8.524;2023-06-10T14:55:33;32.50;97.00
10030;DHT22;5055;52.054;8.524;2023-06-10T14:58:02;32.40;97.00
10030;DHT22;5055;52.054;8.524;2023-06-10T15:00:30;32.70;97.00
10030;DHT22;5055;52.054;8.524;2023-06-10T15:02:58;32.40;97.00
10030;DHT22;5055;52.054;8.524;2023-06-10T15:05:27;32.20;97.00
10030;DHT22;5055;52.054;8.524;2023-06-10T15:07:55;31.90;97.00
10030;DHT22;5055;52.054;8.524;2023-06-10T15:10:24;32.30;97.00
10030;DHT22;5055;52.054;8.524;2023-06-10T15:12:55;32.60;97.00
10030;DHT22;5055;52.054;8.524;2023-06-10T15:15:24;33.00;97.00
10030;DHT22;5055;52.054;8.524;2023-06-10T15:17:53;33.20;97.00
10030;DHT22;5055;52.054;8.524;2023-06-10T15:20:22;33.20;97.00
10030;DHT22;5055;52.054;8.524;2023-06-10T15:22:51;32.90;97.00
10030;DHT22;5055;52.054;8.524;2023-06-10T15:25:20;32.80;97.00
10030;DHT22;5055;52.054;8.524;2023-06-10T15:27:52;32.70;97.00
10030;DHT22;5055;52.054;8.524;2023-06-10T15:30:22;32.40;97.00
10030;DHT22;5055;52.054;8.524;2023-06-10T15:32:51;32.10;97.00
10030;DHT22;5055;52.054;8.524;2023-06-10T15:35:19;31.90;97.00
10030;DHT22;5055;52.054;8.524;2023-06-10T15:37:49;31.90;97.00
10030;DHT22;5055;52.054;8.524;2023-06-10T15:40:17;31.80;97.00
10030;DHT22;5055;52.054;8.524;2023-06-10T15:42:46;31.80;97.00
10030;DHT22;5055;52.054;8.524;2023-06-10T15:45:14;31.60;97.00
10030;DHT22;5055;52.054;8.524;2023-06-10T15:47:44;31.50;97.00
10030;DHT22;5055;52.054;8.524;2023-06-10T15:50:13;31.50;97.00
10030;DHT22;5055;52.054;8.524;2023-06-10T15:52:41;31.60;97.00
10030;DHT22;5055;52.054;8.524;2023-06-10T15:55:10;31.50;97.00
10030;DHT22;5055;52.054;8.524;2023-06-10T15:57:39;31.30;97.00
10030;DHT22;5055;52.054;8.524;2023-06-10T16:00:08;31.20;97.00
10030;DHT22;5055;52.054;8.524;2023-06-10T16:02:37;31.00;97.00